sensor_id;sensor_type;location;lat;lon;timestamp;pressure;altitude;pressure_sealevel;temperature;humidity
46682;BME280;34101;53.430;-2.224;2022-07-18T00:00:36;158500.74;;;24.20;45.76
46682;BME280;34101;53.430;-2.224;2022-07-18T00:03:03;158498.70;;;24.19;45.91
46682;BME280;34101;53.430;-2.224;2022-07-18T00:05:31;158492.27;;;24.16;45.43
46682;BME280;34101;53.430;-2.224;2022-07-18T00:07:58;158487.14;;;24.14;45.12
46682;BME280;34101;53.430;-2.224;2022-07-18T00:10:26;158484.53;;;24.13;44.98
46682;BME280;34101;53.430;-2.224;2022-07-18T00:12:53;158478.42;;;24.11;45.05
46682;BME280;34101;53.430;-2.224;2022-07-18T00:15:21;158462.22;;;24.04;44.79
46682;BME280;34101;53.430;-2.224;2022-07-18T00:17:48;158460.75;;;24.04;44.56
46682;BME280;34101;53.430;-2.224;2022-07-18T00:20:15;158452.77;;;24.00;44.66
46682;BME280;34101;53.430;-2.224;2022-07-18T00:22:43;158435.42;;;23.94;44.56
46682;BME280;34101;53.430;-2.224;2022-07-18T00:25:10;158433.06;;;23.93;44.60
46682;BME280;34101;53.430;-2.224;2022-07-18T00:27:37;158421.17;;;23.88;44.54
46682;BME280;34101;53.430;-2.224;2022-07-18T00:30:06;158417.58;;;23.86;44.57
46682;BME280;34101;53.430;-2.224;2022-07-18T00:32:33;158416.28;;;23.86;44.46
46682;BME280;34101;53.430;-2.224;2022-07-18T00:35:01;158405.37;;;23.82;44.57
46682;BME280;34101;53.430;-2.224;2022-07-18T00:37:29;158398.37;;;23.79;44.58
46682;BME280;34101;53.430;-2.224;2022-07-18T00:39:56;158391.04;;;23.76;44.57
46682;BME280;34101;53.430;-2.224;2022-07-18T00:42:23;158389.98;;;23.75;44.67
46682;BME280;34101;53.430;-2.224;2022-07-18T00:44:53;158389.08;;;23.75;44.45
46682;BME280;34101;53.430;-2.224;2022-07-18T00:47:20;158380.45;;;23.72;44.46
46682;BME280;34101;53.430;-2.224;2022-07-18T00:49:49;158379.96;;;23.71;44.72
46682;BME280;34101;53.430;-2.224;2022-07-18T00:52:16;158358.38;;;23.63;44.74
46682;BME280;34101;53.430;-2.224;2022-07-18T00:54:43;158358.06;;;23.63;44.61
46682;BME280;34101;53.430;-2.224;2022-07-18T00:57:10;158342.01;;;23.56;44.76
46682;BME280;34101;53.430;-2.224;2022-07-18T00:59:39;158340.39;;;23.56;44.72
46682;BME280;34101;53.430;-2.224;2022-07-18T01:02:12;158342.99;;;23.57;45.01
46682;BME280;34101;53.430;-2.224;2022-07-18T01:04:39;158342.18;;;23.56;44.97
46682;BME280;34101;53.430;-2.224;2022-07-18T01:07:06;158348.04;;;23.59;44.88
46682;BME280;34101;53.430;-2.224;2022-07-18T01:09:33;158340.14;;;23.55;44.93
46682;BME280;34101;53.430;-2.224;2022-07-18T01:12:02;158342.58;;;23.56;44.90
46682;BME280;34101;53.430;-2.224;2022-07-18T01:14:31;158347.80;;;23.58;44.87
46682;BME280;34101;53.430;-2.224;2022-07-18T01:16:58;158349.67;;;23.59;45.12
46682;BME280;34101;53.430;-2.224;2022-07-18T01:19:26;158353.01;;;23.61;44.77
46682;BME280;34101;53.430;-2.224;2022-07-18T01:21:53;158350.08;;;23.59;44.74
46682;BME280;34101;53.430;-2.224;2022-07-18T01:24:21;158345.52;;;23.58;45.31
46682;BME280;34101;53.430;-2.224;2022-07-18T01:26:49;158342.91;;;23.57;45.20
46682;BME280;34101;53.430;-2.224;2022-07-18T01:29:16;158335.50;;;23.54;45.55
46682;BME280;34101;53.430;-2.224;2022-07-18T01:31:42;158326.30;;;23.50;45.95
46682;BME280;34101;53.430;-2.224;2022-07-18T01:34:10;158316.36;;;23.46;46.07
46682;BME280;34101;53.430;-2.224;2022-07-18T01:36:38;158315.96;;;23.46;46.51
46682;BME280;34101;53.430;-2.224;2022-07-18T01:39:06;158306.11;;;23.42;46.53
46682;BME280;34101;53.430;-2.224;2022-07-18T01:41:33;158294.30;;;23.37;46.91
46682;BME280;34101;53.430;-2.224;2022-07-18T01:44:00;158275.90;;;23.30;47.07
46682;BME280;34101;53.430;-2.224;2022-07-18T01:46:27;158264.42;;;23.25;47.45
46682;BME280;34101;53.430;-2.224;2022-07-18T01:48:55;158258.23;;;23.23;47.49
46682;BME280;34101;53.430;-2.224;2022-07-18T01:51:22;158255.14;;;23.21;47.67
46682;BME280;34101;53.430;-2.224;2022-07-18T01:53:55;158251.72;;;23.20;47.56
46682;BME280;34101;53.430;-2.224;2022-07-18T01:56:22;158245.94;;;23.18;48.02
46682;BME280;34101;53.430;-2.224;2022-07-18T01:58:49;158240.24;;;23.15;47.63
46682;BME280;34101;53.430;-2.224;2022-07-18T02:01:17;158236.74;;;23.14;48.00
46682;BME280;34101;53.430;-2.224;2022-07-18T02:03:44;158229.17;;;23.11;48.12
46682;BME280;34101;53.430;-2.224;2022-07-18T02:06:12;158217.44;;;23.06;48.24
46682;BME280;34101;53.430;-2.224;2022-07-18T02:08:39;158209.39;;;23.03;48.59
46682;BME280;34101;53.430;-2.224;2022-07-18T02:11:07;158205.80;;;23.02;48.49
46682;BME280;34101;53.430;-2.224;2022-07-18T02:13:34;158189.28;;;22.95;49.00
46682;BME280;34101;53.430;-2.224;2022-07-18T02:16:02;158180.41;;;22.92;49.27
46682;BME280;34101;53.430;-2.224;2022-07-18T02:18:29;158171.21;;;22.88;49.46
46682;BME280;34101;53.430;-2.224;2022-07-18T02:20:57;158165.43;;;22.86;49.18
46682;BME280;34101;53.430;-2.224;2022-07-18T02:23:24;158161.19;;;22.84;49.27
46682;BME280;34101;53.430;-2.224;2022-07-18T02:25:52;158159.32;;;22.83;49.40
46682;BME280;34101;53.430;-2.224;2022-07-18T02:28:19;158152.32;;;22.80;49.27
46682;BME280;34101;53.430;-2.224;2022-07-18T02:30:48;158141.90;;;22.76;49.26
46682;BME280;34101;53.430;-2.224;2022-07-18T02:33:15;158133.03;;;22.73;49.19
46682;BME280;34101;53.430;-2.224;2022-07-18T02:35:43;158122.29;;;22.68;49.15
46682;BME280;34101;53.430;-2.224;2022-07-18T02:38:11;158108.29;;;22.63;48.87
46682;BME280;34101;53.430;-2.224;2022-07-18T02:40:38;158099.74;;;22.59;49.26
46682;BME280;34101;53.430;-2.224;2022-07-18T02:43:07;158084.93;;;22.53;49.49
46682;BME280;34101;53.430;-2.224;2022-07-18T02:45:34;158064.91;;;22.45;49.37
46682;BME280;34101;53.430;-2.224;2022-07-18T02:48:02;158054.25;;;22.41;49.35
46682;BME280;34101;53.430;-2.224;2022-07-18T02:50:29;158050.18;;;22.39;49.69
46682;BME280;34101;53.430;-2.224;2022-07-18T02:52:57;158045.78;;;22.38;49.28
46682;BME280;34101;53.430;-2.224;2022-07-18T02:55:24;158044.73;;;22.37;49.45
46682;BME280;34101;53.430;-2.224;2022-07-18T02:57:51;158042.45;;;22.36;49.22
46682;BME280;34101;53.430;-2.224;2022-07-18T03:00:19;158043.67;;;22.37;48.88
46682;BME280;34101;53.430;-2.224;2022-07-18T03:02:46;158036.42;;;22.34;48.89
46682;BME280;34101;53.430;-2.224;2022-07-18T03:05:14;158025.68;;;22.30;48.98
46682;BME280;34101;53.430;-2.224;2022-07-18T03:07:41;158021.94;;;22.28;49.15
46682;BME280;34101;53.430;-2.224;2022-07-18T03:10:09;158010.63;;;22.24;49.26
46682;BME280;34101;53.430;-2.224;2022-07-18T03:12:36;157995.66;;;22.18;49.57
46682;BME280;34101;53.430;-2.224;2022-07-18T03:15:04;157984.34;;;22.13;50.03
46682;BME280;34101;53.430;-2.224;2022-07-18T03:17:32;157969.78;;;22.07;50.39
46682;BME280;34101;53.430;-2.224;2022-07-18T03:20:00;157960.50;;;22.04;50.45
46682;BME280;34101;53.430;-2.224;2022-07-18T03:22:27;157955.95;;;22.02;50.45
46682;BME280;34101;53.430;-2.224;2022-07-18T03:24:54;157949.03;;;21.99;50.37
46682;BME280;34101;53.430;-2.224;2022-07-18T03:27:22;157942.03;;;21.96;50.75
46682;BME280;34101;53.430;-2.224;2022-07-18T03:29:49;157941.30;;;21.96;51.05
46682;BME280;34101;53.430;-2.224;2022-07-18T03:32:17;157939.84;;;21.95;51.20
46682;BME280;34101;53.430;-2.224;2022-07-18T03:34:45;157939.02;;;21.95;51.40
46682;BME280;34101;53.430;-2.224;2022-07-18T03:37:13;157932.68;;;21.92;51.26
46682;BME280;34101;53.430;-2.224;2022-07-18T03:39:41;157924.78;;;21.89;50.99
46682;BME280;34101;53.430;-2.224;2022-07-18T03:42:08;157915.67;;;21.86;51.04
46682;BME280;34101;53.430;-2.224;2022-07-18T03:44:35;157907.37;;;21.82;51.44
46682;BME280;34101;53.430;-2.224;2022-07-18T03:47:03;157893.71;;;21.77;51.32
46682;BME280;34101;53.430;-2.224;2022-07-18T03:49:30;157895.25;;;21.77;51.59
46682;BME280;34101;53.430;-2.224;2022-07-18T03:51:58;157894.60;;;21.77;51.81
46682;BME280;34101;53.430;-2.224;2022-07-18T03:54:25;157888.82;;;21.75;51.80
46682;BME280;34101;53.430;-2.224;2022-07-18T03:56:53;157885.41;;;21.73;52.00
46682;BME280;34101;53.430;-2.224;2022-07-18T03:59:20;157880.93;;;21.72;52.06
46682;BME280;34101;53.430;-2.224;2022-07-18T04:01:48;157873.45;;;21.69;51.67
46682;BME280;34101;53.430;-2.224;2022-07-18T04:04:15;157869.22;;;21.67;51.84
46682;BME280;34101;53.430;-2.224;2022-07-18T04:06:42;157857.59;;;21.62;51.65
46682;BME280;34101;53.430;-2.224;2022-07-18T04:09:09;157846.52;;;21.58;51.76
46682;BME280;34101;53.430;-2.224;2022-07-18T04:11:37;157835.46;;;21.53;51.83
46682;BME280;34101;53.430;-2.224;2022-07-18T04:14:04;157827.16;;;21.50;52.39
46682;BME280;34101;53.430;-2.224;2022-07-18T04:16:32;157814.47;;;21.45;52.68
46682;BME280;34101;53.430;-2.224;2022-07-18T04:18:59;157806.09;;;21.42;53.05
46682;BME280;34101;53.430;-2.224;2022-07-18T04:21:27;157799.18;;;21.39;52.90
46682;BME280;34101;53.430;-2.224;2022-07-18T04:23:55;157796.74;;;21.38;53.02
46682;BME280;34101;53.430;-2.224;2022-07-18T04:26:22;157781.85;;;21.32;52.86
46682;BME280;34101;53.430;-2.224;2022-07-18T04:28:49;157764.77;;;21.25;52.78
46682;BME280;34101;53.430;-2.224;2022-07-18T04:31:17;157757.86;;;21.22;53.09
46682;BME280;34101;53.430;-2.224;2022-07-18T04:33:44;157753.55;;;21.21;52.68
46682;BME280;34101;53.430;-2.224;2022-07-18T04:36:12;157742.57;;;21.16;52.89
46682;BME280;34101;53.430;-2.224;2022-07-18T04:38:39;157745.99;;;21.18;53.20
46682;BME280;34101;53.430;-2.224;2022-07-18T04:41:07;157742.08;;;21.16;53.03
46682;BME280;34101;53.430;-2.224;2022-07-18T04:43:34;157736.63;;;21.14;53.09
46682;BME280;34101;53.430;-2.224;2022-07-18T04:46:02;157732.32;;;21.12;52.99
46682;BME280;34101;53.430;-2.224;2022-07-18T04:48:29;157738.34;;;21.15;52.99
46682;BME280;34101;53.430;-2.224;2022-07-18T04:50:56;157739.48;;;21.15;53.22
46682;BME280;34101;53.430;-2.224;2022-07-18T04:53:24;157742.89;;;21.16;53.59
46682;BME280;34101;53.430;-2.224;2022-07-18T04:55:51;157751.68;;;21.20;53.53
46682;BME280;34101;53.430;-2.224;2022-07-18T04:58:19;157748.43;;;21.19;53.91
46682;BME280;34101;53.430;-2.224;2022-07-18T05:00:46;157749.40;;;21.19;53.74
46682;BME280;34101;53.430;-2.224;2022-07-18T05:03:14;157750.54;;;21.19;54.28
46682;BME280;34101;53.430;-2.224;2022-07-18T05:05:41;157749.89;;;21.19;54.30
46682;BME280;34101;53.430;-2.224;2022-07-18T05:08:09;157754.53;;;21.21;54.15
46682;BME280;34101;53.430;-2.224;2022-07-18T05:10:36;157762.01;;;21.24;54.23
46682;BME280;34101;53.430;-2.224;2022-07-18T05:13:04;157774.70;;;21.29;53.76
46682;BME280;34101;53.430;-2.224;2022-07-18T05:15:31;157791.05;;;21.36;53.77
46682;BME280;34101;53.430;-2.224;2022-07-18T05:17:58;157802.76;;;21.40;53.69
46682;BME280;34101;53.430;-2.224;2022-07-18T05:20:26;157818.21;;;21.47;54.03
46682;BME280;34101;53.430;-2.224;2022-07-18T05:22:54;157830.98;;;21.52;53.43
46682;BME280;34101;53.430;-2.224;2022-07-18T05:25:22;157838.79;;;21.55;53.60
46682;BME280;34101;53.430;-2.224;2022-07-18T05:27:50;157847.82;;;21.58;53.21
46682;BME280;34101;53.430;-2.224;2022-07-18T05:30:18;157862.38;;;21.64;53.73
46682;BME280;34101;53.430;-2.224;2022-07-18T05:32:45;157867.59;;;21.66;52.87
46682;BME280;34101;53.430;-2.224;2022-07-18T05:35:13;157880.04;;;21.71;53.13
46682;BME280;34101;53.430;-2.224;2022-07-18T05:37:42;157895.25;;;21.77;53.27
46682;BME280;34101;53.430;-2.224;2022-07-18T05:40:11;157913.80;;;21.85;52.95
46682;BME280;34101;53.430;-2.224;2022-07-18T05:42:40;157931.21;;;21.92;53.01
46682;BME280;34101;53.430;-2.224;2022-07-18T05:45:09;157951.55;;;22.00;52.67
46682;BME280;34101;53.430;-2.224;2022-07-18T05:47:36;157971.57;;;22.08;52.43
46682;BME280;34101;53.430;-2.224;2022-07-18T05:50:04;157989.06;;;22.15;52.00
46682;BME280;34101;53.430;-2.224;2022-07-18T05:52:31;158002.33;;;22.20;52.54
46682;BME280;34101;53.430;-2.224;2022-07-18T05:54:59;158021.94;;;22.28;52.02
46682;BME280;34101;53.430;-2.224;2022-07-18T05:57:26;158038.30;;;22.35;51.27
46682;BME280;34101;53.430;-2.224;2022-07-18T05:59:53;158057.83;;;22.42;51.61
46682;BME280;34101;53.430;-2.224;2022-07-18T06:02:21;158078.01;;;22.51;51.17
46682;BME280;34101;53.430;-2.224;2022-07-18T06:04:49;158093.15;;;22.57;50.91
46682;BME280;34101;53.430;-2.224;2022-07-18T06:07:16;158104.46;;;22.61;50.21
46682;BME280;34101;53.430;-2.224;2022-07-18T06:09:44;158119.68;;;22.67;50.08
46682;BME280;34101;53.430;-2.224;2022-07-18T06:12:11;158131.65;;;22.72;50.27
46682;BME280;34101;53.430;-2.224;2022-07-18T06:14:38;158149.72;;;22.79;49.51
46682;BME280;34101;53.430;-2.224;2022-07-18T06:17:05;158164.29;;;22.85;49.24
46682;BME280;34101;53.430;-2.224;2022-07-18T06:19:32;158180.97;;;22.92;49.13
46682;BME280;34101;53.430;-2.224;2022-07-18T06:22:05;158195.22;;;22.97;49.08
46682;BME280;34101;53.430;-2.224;2022-07-18T06:24:32;158209.30;;;23.03;49.03
46682;BME280;34101;53.430;-2.224;2022-07-18T06:27:00;158217.61;;;23.06;48.01
46682;BME280;34101;53.430;-2.224;2022-07-18T06:29:27;158225.99;;;23.10;48.95
46682;BME280;34101;53.430;-2.224;2022-07-18T06:31:55;158232.26;;;23.12;48.52
46682;BME280;34101;53.430;-2.224;2022-07-18T06:34:22;158242.19;;;23.16;47.87
46682;BME280;34101;53.430;-2.224;2022-07-18T06:36:50;158260.27;;;23.23;48.26
46682;BME280;34101;53.430;-2.224;2022-07-18T06:39:17;158274.43;;;23.29;47.89
46682;BME280;34101;53.430;-2.224;2022-07-18T06:41:55;158282.66;;;23.32;46.23
46682;BME280;34101;53.430;-2.224;2022-07-18T06:44:23;158298.21;;;23.39;45.98
46682;BME280;34101;53.430;-2.224;2022-07-18T06:46:50;158302.69;;;23.40;45.02
46682;BME280;34101;53.430;-2.224;2022-07-18T06:49:17;158301.14;;;23.40;42.19
46682;BME280;34101;53.430;-2.224;2022-07-18T06:51:45;158293.65;;;23.37;40.25
46682;BME280;34101;53.430;-2.224;2022-07-18T06:54:12;158301.55;;;23.40;41.55
46682;BME280;34101;53.430;-2.224;2022-07-18T06:56:40;158304.64;;;23.41;40.84
46682;BME280;34101;53.430;-2.224;2022-07-18T06:59:07;158316.69;;;23.46;40.71
46682;BME280;34101;53.430;-2.224;2022-07-18T07:01:35;158305.62;;;23.42;41.00
46682;BME280;34101;53.430;-2.224;2022-07-18T07:04:02;158282.25;;;23.32;40.42
46682;BME280;34101;53.430;-2.224;2022-07-18T07:06:29;158301.14;;;23.40;39.99
46682;BME280;34101;53.430;-2.224;2022-07-18T07:08:57;158332.81;;;23.52;40.14
46682;BME280;34101;53.430;-2.224;2022-07-18T07:11:24;158354.23;;;23.61;39.87
46682;BME280;34101;53.430;-2.224;2022-07-18T07:13:52;158384.03;;;23.73;38.52
46682;BME280;34101;53.430;-2.224;2022-07-18T07:16:19;158422.23;;;23.88;38.89
46682;BME280;34101;53.430;-2.224;2022-07-18T07:18:47;158455.78;;;24.02;37.94
46682;BME280;34101;53.430;-2.224;2022-07-18T07:21:14;158500.25;;;24.19;37.30
46682;BME280;34101;53.430;-2.224;2022-07-18T07:23:42;158529.74;;;24.31;36.61
46682;BME280;34101;53.430;-2.224;2022-07-18T07:26:09;158560.04;;;24.43;36.20
46682;BME280;34101;53.430;-2.224;2022-07-18T07:28:37;158546.19;;;24.38;36.18
46682;BME280;34101;53.430;-2.224;2022-07-18T07:31:04;158564.28;;;24.45;36.18
46682;BME280;34101;53.430;-2.224;2022-07-18T07:33:32;158554.42;;;24.41;35.97
46682;BME280;34101;53.430;-2.224;2022-07-18T07:35:59;158572.59;;;24.48;35.51
46682;BME280;34101;53.430;-2.224;2022-07-18T07:38:27;158598.09;;;24.59;35.90
46682;BME280;34101;53.430;-2.224;2022-07-18T07:40:55;158623.91;;;24.69;35.28
46682;BME280;34101;53.430;-2.224;2022-07-18T07:43:22;158632.22;;;24.72;35.16
46682;BME280;34101;53.430;-2.224;2022-07-18T07:45:50;158661.31;;;24.84;34.85
46682;BME280;34101;53.430;-2.224;2022-07-18T07:48:18;158781.91;;;25.32;34.42
46682;BME280;34101;53.430;-2.224;2022-07-18T07:50:46;159022.29;;;26.28;32.65
46682;BME280;34101;53.430;-2.224;2022-07-18T07:53:13;159142.24;;;26.76;31.39
46682;BME280;34101;53.430;-2.224;2022-07-18T07:55:41;159217.10;;;27.06;30.72
46682;BME280;34101;53.430;-2.224;2022-07-18T07:58:08;159258.29;;;27.22;31.21
46682;BME280;34101;53.430;-2.224;2022-07-18T08:00:36;159340.35;;;27.55;30.79
46682;BME280;34101;53.430;-2.224;2022-07-18T08:03:05;159436.13;;;27.93;30.08
46682;BME280;34101;53.430;-2.224;2022-07-18T08:05:36;159352.51;;;27.60;30.14
46682;BME280;34101;53.430;-2.224;2022-07-18T08:08:04;159486.23;;;28.13;29.79
46682;BME280;34101;53.430;-2.224;2022-07-18T08:10:32;159476.03;;;28.09;29.93
46682;BME280;34101;53.430;-2.224;2022-07-18T08:13:00;159562.29;;;28.44;28.59
46682;BME280;34101;53.430;-2.224;2022-07-18T08:15:28;159735.24;;;29.13;28.02
46682;BME280;34101;53.430;-2.224;2022-07-18T08:17:55;159731.16;;;29.11;27.37
46682;BME280;34101;53.430;-2.224;2022-07-18T08:20:23;159604.64;;;28.61;28.38
46682;BME280;34101;53.430;-2.224;2022-07-18T08:22:55;159760.63;;;29.23;26.92
46682;BME280;34101;53.430;-2.224;2022-07-18T08:25:23;159925.06;;;29.88;26.95
46682;BME280;34101;53.430;-2.224;2022-07-18T08:27:50;160076.97;;;30.49;26.52
46682;BME280;34101;53.430;-2.224;2022-07-18T08:30:18;160190.92;;;30.94;25.78
46682;BME280;34101;53.430;-2.224;2022-07-18T08:32:46;160273.10;;;31.27;25.31
46682;BME280;34101;53.430;-2.224;2022-07-18T08:35:14;160431.95;;;31.91;24.39
46682;BME280;34101;53.430;-2.224;2022-07-18T08:37:41;160392.81;;;31.75;24.10
46682;BME280;34101;53.430;-2.224;2022-07-18T08:40:09;160534.61;;;32.31;23.48
46682;BME280;34101;53.430;-2.224;2022-07-18T08:42:37;160494.07;;;32.15;23.95
46682;BME280;34101;53.430;-2.224;2022-07-18T08:45:05;160595.58;;;32.56;22.39
46682;BME280;34101;53.430;-2.224;2022-07-18T08:47:34;160632.86;;;32.71;22.29
46682;BME280;34101;53.430;-2.224;2022-07-18T08:50:02;160510.49;;;32.22;22.86
46682;BME280;34101;53.430;-2.224;2022-07-18T08:52:30;160532.32;;;32.31;21.85
46682;BME280;34101;53.430;-2.224;2022-07-18T08:54:57;160603.59;;;32.59;22.33
46682;BME280;34101;53.430;-2.224;2022-07-18T08:57:24;160699.00;;;32.97;22.07
46682;BME280;34101;53.430;-2.224;2022-07-18T08:59:52;160746.25;;;33.16;22.06
46682;BME280;34101;53.430;-2.224;2022-07-18T09:02:24;160866.78;;;33.64;21.21
46682;BME280;34101;53.430;-2.224;2022-07-18T09:04:51;160953.39;;;33.98;20.82
46682;BME280;34101;53.430;-2.224;2022-07-18T09:07:28;160898.18;;;33.76;21.75
46682;BME280;34101;53.430;-2.224;2022-07-18T09:10:03;160958.70;;;34.00;21.04
46682;BME280;34101;53.430;-2.224;2022-07-18T09:12:31;161005.16;;;34.19;21.19
46682;BME280;34101;53.430;-2.224;2022-07-18T09:15:05;160878.80;;;33.69;21.08
46682;BME280;34101;53.430;-2.224;2022-07-18T09:17:34;161114.69;;;34.63;19.43
46682;BME280;34101;53.430;-2.224;2022-07-18T09:20:05;161174.41;;;34.86;19.47
46682;BME280;34101;53.430;-2.224;2022-07-18T09:22:33;161206.64;;;34.99;19.17
46682;BME280;34101;53.430;-2.224;2022-07-18T09:25:05;161179.97;;;34.89;19.51
46682;BME280;34101;53.430;-2.224;2022-07-18T09:27:35;161236.75;;;35.11;19.08
46682;BME280;34101;53.430;-2.224;2022-07-18T09:30:14;161146.59;;;34.75;19.47
46682;BME280;34101;53.430;-2.224;2022-07-18T09:32:44;161327.25;;;35.47;19.33
46682;BME280;34101;53.430;-2.224;2022-07-18T09:35:14;161408.43;;;35.79;17.64
46682;BME280;34101;53.430;-2.224;2022-07-18T09:37:52;161503.28;;;36.17;17.41
46682;BME280;34101;53.430;-2.224;2022-07-18T09:40:21;161550.02;;;36.36;17.26
46682;BME280;34101;53.430;-2.224;2022-07-18T09:42:50;161648.42;;;36.75;16.56
46682;BME280;34101;53.430;-2.224;2022-07-18T09:45:23;161669.29;;;36.83;16.67
46682;BME280;34101;53.430;-2.224;2022-07-18T09:47:53;161722.26;;;37.04;16.86
46682;BME280;34101;53.430;-2.224;2022-07-18T09:50:23;161875.87;;;37.65;15.88
46682;BME280;34101;53.430;-2.224;2022-07-18T09:53:10;161882.25;;;37.68;15.76
46682;BME280;34101;53.430;-2.224;2022-07-18T09:55:43;161871.94;;;37.64;15.97
46682;BME280;34101;53.430;-2.224;2022-07-18T09:58:11;161920.66;;;37.83;15.82
46682;BME280;34101;53.430;-2.224;2022-07-18T10:00:40;161969.80;;;38.03;15.43
46682;BME280;34101;53.430;-2.224;2022-07-18T10:03:08;162006.98;;;38.18;15.25
46682;BME280;34101;53.430;-2.224;2022-07-18T10:05:38;162048.18;;;38.34;14.90
46682;BME280;34101;53.430;-2.224;2022-07-18T10:08:09;162102.81;;;38.56;15.18
46682;BME280;34101;53.430;-2.224;2022-07-18T10:10:38;162134.02;;;38.68;14.65
46682;BME280;34101;53.430;-2.224;2022-07-18T10:13:07;162140.16;;;38.71;14.59
46682;BME280;34101;53.430;-2.224;2022-07-18T10:15:38;162127.79;;;38.66;14.64
46682;BME280;34101;53.430;-2.224;2022-07-18T10:18:06;162105.84;;;38.57;14.80
46682;BME280;34101;53.430;-2.224;2022-07-18T10:20:36;162180.14;;;38.86;14.96
46682;BME280;34101;53.430;-2.224;2022-07-18T10:23:10;162218.97;;;39.02;14.75
46682;BME280;34101;53.430;-2.224;2022-07-18T10:25:40;162216.26;;;39.01;14.44
46682;BME280;34101;53.430;-2.224;2022-07-18T10:28:09;162267.79;;;39.21;14.53
46682;BME280;34101;53.430;-2.224;2022-07-18T10:30:42;162374.22;;;39.64;13.92
46682;BME280;34101;53.430;-2.224;2022-07-18T10:33:44;162115.34;;;38.61;15.26
46682;BME280;34101;53.430;-2.224;2022-07-18T10:36:14;161784.65;;;37.29;16.15
46682;BME280;34101;53.430;-2.224;2022-07-18T10:39:04;161835.50;;;37.49;15.59
46682;BME280;34101;53.430;-2.224;2022-07-18T10:41:32;161889.13;;;37.71;15.89
46682;BME280;34101;53.430;-2.224;2022-07-18T10:43:59;162118.62;;;38.62;15.16
46682;BME280;34101;53.430;-2.224;2022-07-18T10:47:03;162180.14;;;38.86;14.86
46682;BME280;34101;53.430;-2.224;2022-07-18T10:50:04;162215.69;;;39.01;14.50
46682;BME280;34101;53.430;-2.224;2022-07-18T10:53:04;162260.42;;;39.18;14.71
46682;BME280;34101;53.430;-2.224;2022-07-18T10:55:32;162371.11;;;39.62;14.35
46682;BME280;34101;53.430;-2.224;2022-07-18T10:58:18;162455.10;;;39.96;14.25
46682;BME280;34101;53.430;-2.224;2022-07-18T11:00:49;162425.84;;;39.84;14.30
46682;BME280;34101;53.430;-2.224;2022-07-18T11:03:26;162317.69;;;39.41;14.36
46682;BME280;34101;53.430;-2.224;2022-07-18T11:05:55;162229.37;;;39.06;14.70
46682;BME280;34101;53.430;-2.224;2022-07-18T11:08:23;162222.00;;;39.03;15.04
46682;BME280;34101;53.430;-2.224;2022-07-18T11:11:07;162025.08;;;38.25;15.54
46682;BME280;34101;53.430;-2.224;2022-07-18T11:13:36;162260.91;;;39.19;14.64
46682;BME280;34101;53.430;-2.224;2022-07-18T11:16:08;162235.60;;;39.09;14.98
46682;BME280;34101;53.430;-2.224;2022-07-18T11:19:16;162197.91;;;38.94;14.28
46682;BME280;34101;53.430;-2.224;2022-07-18T11:21:44;161982.49;;;38.08;14.75
46682;BME280;34101;53.430;-2.224;2022-07-18T11:24:11;161899.61;;;37.75;15.09
46682;BME280;34101;53.430;-2.224;2022-07-18T11:26:44;161742.89;;;37.13;15.83
46682;BME280;34101;53.430;-2.224;2022-07-18T11:29:14;161795.29;;;37.33;14.22
46682;BME280;34101;53.430;-2.224;2022-07-18T11:31:44;161980.20;;;38.07;14.13
46682;BME280;34101;53.430;-2.224;2022-07-18T11:34:12;161984.46;;;38.09;14.66
46682;BME280;34101;53.430;-2.224;2022-07-18T11:36:41;161757.96;;;37.19;15.58
46682;BME280;34101;53.430;-2.224;2022-07-18T11:39:09;161887.08;;;37.70;14.76
46682;BME280;34101;53.430;-2.224;2022-07-18T11:41:37;161958.90;;;37.99;12.84
46682;BME280;34101;53.430;-2.224;2022-07-18T11:44:05;162077.25;;;38.46;12.51
46682;BME280;34101;53.430;-2.224;2022-07-18T11:46:32;162171.53;;;38.83;12.64
46682;BME280;34101;53.430;-2.224;2022-07-18T11:49:02;162017.63;;;38.22;13.58
46682;BME280;34101;53.430;-2.224;2022-07-18T11:51:34;162044.24;;;38.32;13.51
46682;BME280;34101;53.430;-2.224;2022-07-18T11:54:02;162040.23;;;38.31;13.33
46682;BME280;34101;53.430;-2.224;2022-07-18T11:56:31;162086.18;;;38.49;12.15
46682;BME280;34101;53.430;-2.224;2022-07-18T11:58:58;162047.36;;;38.34;12.10
46682;BME280;34101;53.430;-2.224;2022-07-18T12:01:31;162080.53;;;38.47;12.22
46682;BME280;34101;53.430;-2.224;2022-07-18T12:04:00;161967.26;;;38.02;12.79
46682;BME280;34101;53.430;-2.224;2022-07-18T12:06:28;162022.46;;;38.24;12.48
46682;BME280;34101;53.430;-2.224;2022-07-18T12:08:56;162038.18;;;38.30;11.23
46682;BME280;34101;53.430;-2.224;2022-07-18T12:11:28;162001.98;;;38.16;11.33
46682;BME280;34101;53.430;-2.224;2022-07-18T12:13:57;161998.71;;;38.14;11.51
46682;BME280;34101;53.430;-2.224;2022-07-18T12:16:29;162052.03;;;38.36;12.63
46682;BME280;34101;53.430;-2.224;2022-07-18T12:19:01;162138.69;;;38.70;12.63
46682;BME280;34101;53.430;-2.224;2022-07-18T12:21:46;162206.02;;;38.97;11.55
46682;BME280;34101;53.430;-2.224;2022-07-18T12:24:25;162050.39;;;38.35;11.57
46682;BME280;34101;53.430;-2.224;2022-07-18T12:27:14;161984.29;;;38.09;11.96
46682;BME280;34101;53.430;-2.224;2022-07-18T12:30:08;161806.18;;;37.38;12.49
46682;BME280;34101;53.430;-2.224;2022-07-18T12:32:43;161730.45;;;37.08;12.72
46682;BME280;34101;53.430;-2.224;2022-07-18T12:35:14;161723.00;;;37.05;12.90
46682;BME280;34101;53.430;-2.224;2022-07-18T12:37:50;161707.28;;;36.98;12.99
46682;BME280;34101;53.430;-2.224;2022-07-18T12:40:17;161731.18;;;37.08;13.15
46682;BME280;34101;53.430;-2.224;2022-07-18T12:42:44;161727.17;;;37.06;12.97
46682;BME280;34101;53.430;-2.224;2022-07-18T12:45:17;161695.00;;;36.94;13.58
46682;BME280;34101;53.430;-2.224;2022-07-18T12:47:44;161702.61;;;36.97;12.38
46682;BME280;34101;53.430;-2.224;2022-07-18T12:50:12;161668.23;;;36.83;12.44